Time;durP1;ratioP1;P1;durP2;ratioP2;P2;SDS_P1;SDS_P2;PMS_P1;PMS_P2;Temp;Humidity;BMP_temperature;BMP_pressure;BME280_temperature;BME280_humidity;BME280_pressure;Samples;Min_cycle;Max_cycle;Signal;HPM_P1;HPM_P2
2023/08/01 00:00:45;;;;;;;23.30;17.50;;;;;;;26.14;59.07;99542.67;108097;1256;59644;-70
2023/08/01 00:03:13;;;;;;;26.30;19.20;;;;;;;26.05;59.33;99542.27;108283;1253;71886;-69
2023/08/01 00:05:44;;;;;;;30.70;18.50;;;;;;;26.14;59.20;99543.08;108069;1252;69990;-69
2023/08/01 00:08:12;;;;;;;26.50;18.40;;;;;;;26.21;58.85;99543.58;108223;1253;72629;-70
2023/08/01 00:10:40;;;;;;;30.20;18.90;;;;;;;26.11;59.04;99541.16;108098;1252;61836;-70
2023/08/01 00:13:08;;;;;;;23.20;17.30;;;;;;;26.12;59.22;99544.73;108113;1254;59683;-69
2023/08/01 00:15:36;;;;;;;26.60;19.00;;;;;;;26.12;59.33;99539.97;108088;1253;73081;-70
2023/08/01 00:18:03;;;;;;;22.20;17.30;;;;;;;26.16;59.54;99537.98;108078;1253;70439;-69
2023/08/01 00:20:31;;;;;;;24.10;18.10;;;;;;;26.20;59.46;99534.14;108129;1259;72661;-68
2023/08/01 00:22:58;;;;;;;28.90;18.70;;;;;;;26.17;59.70;99533.86;108092;1254;60377;-68
2023/08/01 00:25:25;;;;;;;25.20;17.80;;;;;;;26.31;59.39;99529.78;108013;1254;59627;-71
2023/08/01 00:27:53;;;;;;;25.80;18.60;;;;;;;26.22;59.60;99531.25;107998;1253;72269;-67
2023/08/01 00:30:20;;;;;;;23.00;18.00;;;;;;;26.13;59.91;99534.34;108038;1259;70916;-68
2023/08/01 00:32:48;;;;;;;20.10;16.40;;;;;;;26.14;59.81;99531.84;108048;1257;72002;-69
2023/08/01 00:35:16;;;;;;;24.00;18.90;;;;;;;26.23;59.72;99529.05;108018;1253;61674;-69
2023/08/01 00:37:43;;;;;;;25.60;18.40;;;;;;;26.05;60.12;99530.58;108070;1254;59535;-69
2023/08/01 00:40:11;;;;;;;25.10;18.30;;;;;;;26.06;60.27;99527.58;108036;1253;71906;-70
2023/08/01 00:42:39;;;;;;;24.30;18.00;;;;;;;26.14;60.00;99522.36;107925;1253;69154;-71
2023/08/01 00:45:07;;;;;;;21.10;16.70;;;;;;;26.27;59.65;99526.31;107992;1253;72705;-70
2023/08/01 00:47:35;;;;;;;22.60;18.50;;;;;;;26.19;59.69;99525.79;108051;1257;61691;-72
2023/08/01 00:50:03;;;;;;;19.70;16.20;;;;;;;26.19;59.70;99528.45;107926;1253;59974;-68
2023/08/01 00:52:30;;;;;;;25.20;17.30;;;;;;;26.22;59.58;99528.55;107759;1253;72229;-70
2023/08/01 00:54:57;;;;;;;25.70;19.70;;;;;;;26.18;59.67;99530.39;108019;1253;68770;-70
2023/08/01 00:57:25;;;;;;;20.70;15.80;;;;;;;26.27;59.54;99530.48;107983;1253;72592;-70
2023/08/01 00:59:52;;;;;;;23.30;17.70;;;;;;;26.30;59.53;99525.06;107908;1253;60434;-70
2023/08/01 01:02:19;;;;;;;24.00;18.40;;;;;;;26.14;59.90;99516.30;107934;1253;59898;-69
2023/08/01 01:04:48;;;;;;;21.30;17.70;;;;;;;26.08;60.10;99513.27;108045;1254;71310;-69
2023/08/01 01:07:15;;;;;;;25.10;17.50;;;;;;;26.32;59.40;99513.71;107987;1253;68870;-69
2023/08/01 01:09:43;;;;;;;19.50;16.30;;;;;;;26.19;59.62;99510.98;107933;1254;75446;-69
2023/08/01 01:12:11;;;;;;;22.30;18.10;;;;;;;26.07;59.76;99513.05;107938;1254;61675;-70
2023/08/01 01:14:38;;;;;;;24.30;17.20;;;;;;;26.06;59.63;99510.80;107966;1253;60180;-68
2023/08/01 01:17:05;;;;;;;26.30;17.50;;;;;;;26.01;59.67;99511.04;107952;1253;72851;-68
2023/08/01 01:19:33;;;;;;;27.70;18.20;;;;;;;25.92;59.59;99513.81;108062;1253;70336;-68
2023/08/01 01:22:00;;;;;;;20.30;15.70;;;;;;;25.85;59.71;99512.96;107921;1254;71487;-69
2023/08/01 01:24:28;;;;;;;20.90;16.40;;;;;;;25.89;59.54;99512.92;108063;1252;61787;-70
2023/08/01 01:26:55;;;;;;;23.40;16.70;;;;;;;25.63;60.05;99514.70;108109;1253;60013;-70
2023/08/01 01:29:23;;;;;;;21.30;17.00;;;;;;;25.77;59.79;99509.70;108082;1253;72915;-68
2023/08/01 01:31:51;;;;;;;25.80;17.00;;;;;;;25.90;59.11;99512.33;108187;1253;68942;-68
2023/08/01 01:34:18;;;;;;;24.80;17.20;;;;;;;25.86;59.05;99511.52;107935;1260;72649;-69
2023/08/01 01:36:46;;;;;;;17.90;14.80;;;;;;;25.79;59.03;99512.14;108197;1253;61607;-68
2023/08/01 01:39:13;;;;;;;25.10;16.80;;;;;;;25.71;59.33;99513.76;108166;1254;60422;-71
2023/08/01 01:41:41;;;;;;;26.10;15.00;;;;;;;25.76;59.15;99513.86;108130;1254;74433;-72
2023/08/01 01:44:08;;;;;;;22.20;16.80;;;;;;;25.84;58.87;99511.64;108250;1253;70312;-72
2023/08/01 01:46:35;;;;;;;27.90;18.00;;;;;;;25.94;58.54;99506.41;108070;1254;72538;-68
2023/08/01 01:49:03;;;;;;;21.90;15.60;;;;;;;25.83;58.64;99503.30;108100;1253;60384;-69
2023/08/01 01:51:30;;;;;;;25.60;17.70;;;;;;;25.74;59.03;99507.17;107953;1255;60257;-68
2023/08/01 01:53:58;;;;;;;30.20;17.30;;;;;;;25.82;58.69;99505.25;108147;1254;74049;-69
2023/08/01 01:56:25;;;;;;;24.50;16.50;;;;;;;25.83;58.52;99509.05;108106;1254;70703;-69
2023/08/01 01:58:54;;;;;;;26.50;17.00;;;;;;;25.77;58.64;99510.24;108108;1254;72891;-69
2023/08/01 02:01:21;;;;;;;18.10;14.60;;;;;;;25.75;58.55;99508.63;107997;1254;61653;-68
2023/08/01 02:03:49;;;;;;;20.70;15.90;;;;;;;25.36;59.51;99514.90;108155;1253;60624;-69
2023/08/01 02:06:16;;;;;;;24.80;15.90;;;;;;;25.09;60.25;99517.11;107938;1254;72669;-70
2023/08/01 02:08:45;;;;;;;25.80;17.00;;;;;;;25.18;60.13;99517.11;108136;1256;69693;-68
2023/08/01 02:11:12;;;;;;;23.10;17.20;;;;;;;24.93;60.81;99519.19;108252;1255;71199;-70
2023/08/01 02:13:39;;;;;;;26.70;16.30;;;;;;;25.09;60.61;99518.19;108087;1253;64048;-69
2023/08/01 02:16:07;;;;;;;26.40;17.90;;;;;;;25.03;60.84;99523.48;108120;1254;60354;-68
2023/08/01 02:18:34;;;;;;;22.80;17.50;;;;;;;25.12;60.47;99516.81;108104;1253;73851;-69
2023/08/01 02:21:02;;;;;;;21.90;15.40;;;;;;;25.04;60.52;99518.36;108195;1253;69926;-69
2023/08/01 02:23:29;;;;;;;28.90;17.40;;;;;;;25.16;60.18;99518.66;108167;1254;72529;-68
2023/08/01 02:25:57;;;;;;;19.40;15.00;;;;;;;25.23;59.97;99519.36;107966;1257;61259;-69
2023/08/01 02:28:24;;;;;;;20.70;15.50;;;;;;;25.15;60.17;99520.80;107989;1253;60472;-68
2023/08/01 02:30:52;;;;;;;23.10;18.90;;;;;;;25.02;60.33;99524.17;107973;1259;71793;-70
2023/08/01 02:33:20;;;;;;;23.20;15.80;;;;;;;24.99;60.41;99522.55;107963;1253;71723;-69
2023/08/01 02:35:48;;;;;;;22.60;18.60;;;;;;;25.04;60.27;99520.48;108022;1253;72688;-68
2023/08/01 02:38:16;;;;;;;27.60;19.70;;;;;;;25.35;59.56;99517.40;107942;1257;61678;-71
2023/08/01 02:40:43;;;;;;;22.50;17.70;;;;;;;25.39;59.63;99520.89;107995;1259;60861;-69
2023/08/01 02:43:10;;;;;;;25.30;18.50;;;;;;;25.34;59.75;99525.45;108013;1254;73873;-70
2023/08/01 02:45:38;;;;;;;20.80;17.70;;;;;;;25.43;59.42;99526.96;108031;1253;68677;-70
2023/08/01 02:48:05;;;;;;;22.80;17.60;;;;;;;25.48;59.25;99526.77;107963;1257;72719;-69
2023/08/01 02:50:33;;;;;;;25.80;18.00;;;;;;;25.17;59.90;99528.42;108017;1253;61292;-70
2023/08/01 02:53:00;;;;;;;23.20;18.40;;;;;;;25.01;60.50;99530.94;108050;1254;60425;-69
2023/08/01 02:55:27;;;;;;;23.90;18.70;;;;;;;25.05;60.62;99534.38;108050;1254;74154;-69
2023/08/01 02:57:55;;;;;;;22.10;16.80;;;;;;;25.12;60.40;99534.73;107935;1254;69961;-68
2023/08/01 03:00:22;;;;;;;22.00;18.00;;;;;;;25.19;60.20;99532.88;107906;1256;71412;-70
2023/08/01 03:02:50;;;;;;;33.30;21.70;;;;;;;25.27;60.17;99533.81;108036;1257;61720;-70
2023/08/01 03:05:17;;;;;;;41.30;23.80;;;;;;;25.43;59.82;99530.58;108018;1253;60193;-70
2023/08/01 03:07:45;;;;;;;41.30;23.80;;;;;;;25.41;59.86;99529.86;107935;1253;73781;-70
2023/08/01 03:10:13;;;;;;;27.80;19.70;;;;;;;25.47;59.74;99532.05;107972;1253;70221;-70
2023/08/01 03:12:49;;;;;;;32.60;20.30;;;;;;;25.50;59.70;99528.46;107987;1253;72497;-70
2023/08/01 03:15:16;;;;;;;35.60;22.10;;;;;;;25.50;59.91;99526.94;107956;1254;61671;-70
2023/08/01 03:17:44;;;;;;;28.40;19.40;;;;;;;25.55;59.97;99526.70;107957;1253;60341;-70
2023/08/01 03:20:11;;;;;;;33.30;22.90;;;;;;;25.56;60.09;99532.00;108007;1253;72560;-70
2023/08/01 03:22:39;;;;;;;33.30;22.50;;;;;;;25.60;60.15;99533.48;107921;1253;69436;-69
2023/08/01 03:25:10;;;;;;;40.00;22.00;;;;;;;25.65;60.16;99532.73;108050;1253;71931;-70
2023/08/01 03:27:37;;;;;;;45.90;25.10;;;;;;;25.65;60.48;99532.60;108173;1254;60676;-70
2023/08/01 03:30:08;;;;;;;33.90;19.20;;;;;;;25.81;60.41;99533.75;108070;1254;60437;-70
2023/08/01 03:32:39;;;;;;;46.10;24.40;;;;;;;25.74;60.66;99531.56;108145;1253;74445;-69
2023/08/01 03:35:06;;;;;;;83.40;25.10;;;;;;;25.70;60.98;99535.71;108174;1254;70572;-70
2023/08/01 03:37:34;;;;;;;62.50;20.60;;;;;;;25.62;61.45;99535.10;108177;1254;71225;-72
2023/08/01 03:40:01;;;;;;;72.10;23.70;;;;;;;25.57;62.04;99535.93;108170;1254;60603;-71
2023/08/01 03:42:29;;;;;;;44.40;21.40;;;;;;;25.59;62.33;99535.09;108163;1253;60245;-70
2023/08/01 03:44:56;;;;;;;40.80;25.10;;;;;;;25.48;63.15;99538.02;108135;1254;73809;-70
2023/08/01 03:47:24;;;;;;;45.00;23.00;;;;;;;25.42;63.47;99534.27;108226;1254;70151;-71
2023/08/01 03:49:52;;;;;;;38.80;18.80;;;;;;;25.46;63.66;99530.87;108098;1254;72671;-69
2023/08/01 03:52:19;;;;;;;42.30;22.50;;;;;;;25.49;63.61;99533.34;108040;1254;61715;-69
2023/08/01 03:54:46;;;;;;;37.80;20.50;;;;;;;25.46;63.76;99533.77;108099;1254;60392;-67
2023/08/01 03:57:14;;;;;;;23.00;18.10;;;;;;;25.44;64.05;99534.76;108198;1254;73883;-70
2023/08/01 03:59:42;;;;;;;29.20;19.50;;;;;;;25.46;64.04;99532.55;107970;1255;68975;-70
2023/08/01 04:02:09;;;;;;;19.60;16.30;;;;;;;25.43;64.48;99531.41;108081;1254;72678;-70
2023/08/01 04:04:37;;;;;;;23.40;17.30;;;;;;;25.54;64.29;99526.43;108133;1254;60398;-70
2023/08/01 04:07:04;;;;;;;24.50;16.80;;;;;;;25.67;64.15;99531.09;107936;1253;59982;-69
2023/08/01 04:09:31;;;;;;;26.60;18.10;;;;;;;25.85;64.02;99530.63;108198;1253;73918;-70
2023/08/01 04:11:59;;;;;;;23.40;18.40;;;;;;;26.07;64.06;99529.09;108118;1259;70385;-69
2023/08/01 04:14:26;;;;;;;22.90;17.50;;;;;;;26.38;63.55;99527.36;108075;1254;71458;-70
2023/08/01 04:16:53;;;;;;;21.10;16.00;;;;;;;26.66;62.88;99531.73;108068;1253;62125;-70
2023/08/01 04:19:21;;;;;;;21.50;15.90;;;;;;;26.82;61.86;99530.15;108152;1254;60447;-70
2023/08/01 04:21:48;;;;;;;21.40;16.00;;;;;;;26.97;61.45;99531.13;108101;1253;74229;-70
2023/08/01 04:24:16;;;;;;;18.60;14.90;;;;;;;27.23;60.62;99533.75;108044;1254;69023;-71
2023/08/01 04:26:43;;;;;;;18.70;13.90;;;;;;;27.45;59.17;99533.65;108024;1258;71756;-70
2023/08/01 04:29:10;;;;;;;15.80;12.90;;;;;;;27.76;57.83;99535.98;107945;1254;61786;-70
2023/08/01 04:31:38;;;;;;;15.70;13.40;;;;;;;27.89;56.50;99534.90;107925;1254;59970;-70
2023/08/01 04:34:05;;;;;;;14.80;12.60;;;;;;;27.97;56.24;99530.10;107937;1254;72673;-70
2023/08/01 04:36:33;;;;;;;17.30;11.60;;;;;;;28.14;55.55;99531.81;108025;1253;70290;-71
2023/08/01 04:39:00;;;;;;;14.80;11.90;;;;;;;28.44;55.25;99533.17;108083;1254;73086;-72
2023/08/01 04:41:27;;;;;;;12.20;10.30;;;;;;;28.63;54.77;99532.95;108037;1259;60659;-69
2023/08/01 04:43:55;;;;;;;15.60;11.30;;;;;;;28.92;53.66;99535.94;108032;1259;60246;-70
2023/08/01 04:46:22;;;;;;;15.00;12.10;;;;;;;29.18;52.93;99538.14;108072;1254;72664;-71
2023/08/01 04:48:50;;;;;;;15.10;11.40;;;;;;;29.35;52.22;99533.46;108083;1254;70286;-69
2023/08/01 04:51:17;;;;;;;16.60;12.00;;;;;;;29.41;51.80;99527.48;107973;1254;72677;-71
2023/08/01 04:53:44;;;;;;;12.80;10.80;;;;;;;29.84;51.37;99523.68;107985;1259;60842;-72
2023/08/01 04:56:12;;;;;;;13.80;10.90;;;;;;;30.08;49.93;99529.77;108004;1254;60451;-71
2023/08/01 04:58:39;;;;;;;13.10;10.90;;;;;;;29.92;50.27;99534.36;108003;1253;72670;-70
2023/08/01 05:01:06;;;;;;;12.30;10.00;;;;;;;30.15;49.59;99532.73;108051;1259;69081;-70
2023/08/01 05:03:34;;;;;;;12.80;10.80;;;;;;;30.36;49.02;99535.80;108039;1259;72523;-70
2023/08/01 05:06:01;;;;;;;13.50;11.20;;;;;;;30.55;48.23;99538.23;107931;1256;60646;-70
2023/08/01 05:08:29;;;;;;;12.20;10.80;;;;;;;30.77;47.60;99534.44;108027;1254;60374;-69
2023/08/01 05:10:56;;;;;;;14.10;11.00;;;;;;;30.83;46.89;99534.98;107954;1254;76098;-70
2023/08/01 05:13:24;;;;;;;12.70;10.00;;;;;;;30.85;47.10;99532.84;107998;1259;70284;-71
2023/08/01 05:15:51;;;;;;;16.80;11.30;;;;;;;30.86;46.59;99534.77;107953;1254;72772;-70
2023/08/01 05:18:19;;;;;;;11.00;9.40;;;;;;;31.02;46.48;99538.84;107986;1259;61751;-70
2023/08/01 05:20:46;;;;;;;12.10;10.00;;;;;;;31.34;45.68;99540.10;107944;1254;60451;-70
2023/08/01 05:23:13;;;;;;;13.40;10.50;;;;;;;31.38;45.57;99539.98;108037;1253;72805;-69
2023/08/01 05:25:41;;;;;;;14.20;11.10;;;;;;;31.76;44.85;99543.77;108296;1254;68963;-71
2023/08/01 05:28:08;;;;;;;16.20;12.10;;;;;;;31.99;44.49;99543.20;108034;1258;72024;-73
2023/08/01 05:30:35;;;;;;;13.10;10.60;;;;;;;32.25;43.61;99544.52;108074;1259;60429;-71
2023/08/01 05:33:03;;;;;;;16.40;11.10;;;;;;;32.50;43.13;99547.45;108082;1253;60273;-70
2023/08/01 05:35:31;;;;;;;15.00;12.20;;;;;;;32.56;42.59;99548.58;108064;1254;72560;-70
2023/08/01 05:37:59;;;;;;;16.20;12.10;;;;;;;32.54;42.81;99551.28;108069;1257;70137;-66
2023/08/01 05:40:27;;;;;;;17.00;13.70;;;;;;;32.55;42.70;99547.08;107989;1257;71687;-71
2023/08/01 05:42:55;;;;;;;19.70;13.20;;;;;;;32.64;42.36;99548.06;108012;1254;61696;-71
2023/08/01 05:45:22;;;;;;;16.50;13.20;;;;;;;32.83;42.51;99545.23;108118;1254;60478;-71
2023/08/01 05:47:50;;;;;;;16.40;13.30;;;;;;;33.19;41.91;99546.41;108089;1254;73325;-69
2023/08/01 05:50:17;;;;;;;16.20;12.50;;;;;;;33.58;41.31;99544.55;108058;1260;69979;-72
2023/08/01 05:52:45;;;;;;;15.60;11.90;;;;;;;33.90;40.83;99543.55;108019;1257;73017;-71
2023/08/01 05:55:12;;;;;;;16.40;12.70;;;;;;;33.93;40.37;99542.39;108021;1254;60326;-73
2023/08/01 05:57:39;;;;;;;15.80;10.50;;;;;;;33.75;40.51;99547.21;108010;1254;59326;-71
2023/08/01 06:00:08;;;;;;;11.50;9.80;;;;;;;33.83;40.04;99553.16;108022;1254;73628;-71
2023/08/01 06:02:41;;;;;;;14.30;11.20;;;;;;;34.00;39.24;99554.89;108018;1259;61494;-72
2023/08/01 06:05:09;;;;;;;15.70;10.70;;;;;;;34.31;39.39;99550.91;107952;1255;63774;-70
2023/08/01 06:07:37;;;;;;;16.90;9.80;;;;;;;34.65;38.78;99549.36;107994;1257;60470;-71
2023/08/01 06:10:04;;;;;;;9.90;8.70;;;;;;;34.92;38.47;99548.45;107999;1254;62213;-71
2023/08/01 06:12:31;;;;;;;10.60;8.40;;;;;;;35.19;37.78;99549.04;107893;1254;64900;-73
2023/08/01 06:14:59;;;;;;;11.70;8.80;;;;;;;35.67;37.36;99546.06;107866;1260;60956;-70
2023/08/01 06:17:26;;;;;;;9.10;7.30;;;;;;;36.11;36.11;99546.08;107901;1254;64002;-71
2023/08/01 06:19:54;;;;;;;9.60;6.70;;;;;;;36.27;35.02;99549.08;107972;1254;60367;-72
2023/08/01 06:22:22;;;;;;;8.90;6.20;;;;;;;36.35;35.29;99550.79;108056;1257;59763;-70
2023/08/01 06:24:49;;;;;;;10.60;6.00;;;;;;;36.64;35.13;99546.99;108034;1255;65013;-71
2023/08/01 06:27:17;;;;;;;5.30;4.80;;;;;;;37.00;33.81;99546.27;107994;1254;61521;-70
2023/08/01 06:29:45;;;;;;;9.20;5.60;;;;;;;37.08;33.43;99547.23;107972;1257;63306;-71
2023/08/01 06:32:12;;;;;;;7.90;5.10;;;;;;;37.08;33.40;99549.50;108014;1259;60437;-71
2023/08/01 06:34:40;;;;;;;5.60;4.40;;;;;;;37.07;33.14;99548.83;108063;1259;59145;-72
2023/08/01 06:37:07;;;;;;;7.10;4.70;;;;;;;37.16;32.85;99546.15;108045;1257;65483;-71
2023/08/01 06:39:34;;;;;;;6.70;5.10;;;;;;;37.13;32.73;99543.46;108070;1255;61539;-72
2023/08/01 06:42:02;;;;;;;5.00;4.40;;;;;;;36.80;32.98;99545.42;107994;1258;62504;-73
2023/08/01 06:44:30;;;;;;;7.10;4.60;;;;;;;36.57;33.25;99544.69;107983;1256;60415;-72
2023/08/01 06:46:57;;;;;;;5.80;4.50;;;;;;;36.58;33.37;99544.80;107968;1254;60304;-72
2023/08/01 06:49:25;;;;;;;4.70;4.20;;;;;;;36.54;33.25;99537.29;108020;1254;64969;-72
2023/08/01 06:51:52;;;;;;;6.30;4.60;;;;;;;36.42;33.26;99543.00;107992;1255;61424;-72
2023/08/01 06:54:20;;;;;;;5.90;3.80;;;;;;;36.47;32.99;99535.16;108034;1254;63961;-73
2023/08/01 06:56:47;;;;;;;5.00;4.20;;;;;;;36.78;32.90;99535.49;107980;1254;60325;-72
2023/08/01 06:59:15;;;;;;;4.40;3.70;;;;;;;36.87;32.58;99533.39;108154;1253;60328;-71
2023/08/01 07:01:43;;;;;;;3.80;3.40;;;;;;;36.56;32.31;99536.66;107999;1254;64925;-71
2023/08/01 07:04:11;;;;;;;4.50;4.00;;;;;;;36.30;32.65;99538.45;108146;1255;61554;-72
2023/08/01 07:06:39;;;;;;;4.20;3.40;;;;;;;36.22;33.16;99532.13;108025;1254;63623;-71
2023/08/01 07:09:07;;;;;;;5.20;4.00;;;;;;;36.10;33.34;99534.48;108039;1255;60443;-73
2023/08/01 07:11:35;;;;;;;6.10;4.00;;;;;;;36.18;33.43;99536.13;107963;1255;60297;-71
2023/08/01 07:14:02;;;;;;;12.00;4.20;;;;;;;36.38;32.81;99538.23;108014;1254;63704;-70
2023/08/01 07:16:30;;;;;;;7.10;4.10;;;;;;;36.27;33.28;99537.94;108035;1254;61338;-70
2023/08/01 07:18:59;;;;;;;5.30;3.90;;;;;;;36.68;32.81;99536.38;107962;1254;64368;-73
2023/08/01 07:21:28;;;;;;;6.00;4.10;;;;;;;36.81;32.79;99539.19;108014;1257;60218;-73
2023/08/01 07:23:57;;;;;;;5.40;3.80;;;;;;;36.78;32.77;99538.52;108051;1258;59150;-71
2023/08/01 07:26:25;;;;;;;4.20;3.30;;;;;;;36.75;32.61;99538.58;108056;1258;64902;-72
2023/08/01 07:28:52;;;;;;;5.20;3.90;;;;;;;36.95;32.22;99541.64;108107;1255;60447;-71
2023/08/01 07:31:19;;;;;;;5.40;3.80;;;;;;;36.97;32.02;99541.70;108090;1254;63853;-71
2023/08/01 07:33:47;;;;;;;5.60;3.70;;;;;;;36.96;32.00;99537.77;108152;1255;60319;-73
2023/08/01 07:36:14;;;;;;;6.90;4.10;;;;;;;37.00;32.06;99538.12;108159;1254;60444;-72
2023/08/01 07:38:41;;;;;;;4.10;3.70;;;;;;;37.07;32.16;99538.83;108090;1259;64947;-72
2023/08/01 07:41:09;;;;;;;5.60;4.10;;;;;;;37.25;32.26;99536.42;108129;1254;61370;-72
2023/08/01 07:43:36;;;;;;;6.10;3.70;;;;;;;37.60;31.78;99537.96;108179;1255;63922;-71
2023/08/01 07:46:04;;;;;;;5.70;3.80;;;;;;;37.84;31.08;99540.89;108251;1254;60450;-71
2023/08/01 07:48:32;;;;;;;3.90;3.50;;;;;;;38.09;30.77;99539.88;108111;1254;60224;-69
2023/08/01 07:51:00;;;;;;;3.60;3.30;;;;;;;38.34;30.41;99541.11;108161;1252;65036;-72
2023/08/01 07:53:27;;;;;;;4.20;3.70;;;;;;;38.42;30.19;99537.77;108121;1254;61858;-72
2023/08/01 07:55:54;;;;;;;4.20;3.80;;;;;;;38.39;29.82;99532.81;108104;1255;63766;-70
2023/08/01 07:58:22;;;;;;;5.40;3.50;;;;;;;38.46;29.69;99533.25;108105;1253;60485;-72
2023/08/01 08:00:51;;;;;;;3.20;2.90;;;;;;;38.69;29.48;99535.51;108048;1254;60211;-71
2023/08/01 08:03:18;;;;;;;3.40;3.10;;;;;;;38.62;29.01;99532.93;108019;1252;63671;-71
2023/08/01 08:05:48;;;;;;;5.70;3.00;;;;;;;38.64;29.05;99532.06;108172;1254;60274;-73
2023/08/01 08:08:18;;;;;;;3.70;3.10;;;;;;;38.82;28.92;99532.96;108101;1254;62509;-72
2023/08/01 08:10:45;;;;;;;4.20;3.10;;;;;;;38.99;28.36;99534.05;108119;1254;60523;-72
2023/08/01 08:13:14;;;;;;;4.30;3.20;;;;;;;39.00;27.91;99534.02;108030;1254;59560;-72
2023/08/01 08:15:42;;;;;;;5.50;3.40;;;;;;;38.95;28.00;99533.40;108047;1254;64903;-72
2023/08/01 08:18:11;;;;;;;4.00;3.60;;;;;;;38.91;28.26;99538.69;108036;1257;60419;-72
2023/08/01 08:20:42;;;;;;;4.80;3.40;;;;;;;38.67;28.29;99534.48;108258;1255;63768;-70
2023/08/01 08:23:10;;;;;;;5.40;3.90;;;;;;;38.86;28.73;99532.52;108092;1254;60455;-71
2023/08/01 08:25:38;;;;;;;4.90;4.00;;;;;;;38.90;29.31;99530.33;108110;1254;60457;-73
2023/08/01 08:28:05;;;;;;;3.90;3.50;;;;;;;38.55;29.94;99531.23;108072;1254;63677;-71
2023/08/01 08:30:32;;;;;;;5.90;4.10;;;;;;;38.45;30.08;99530.50;108031;1254;61317;-72
2023/08/01 08:33:04;;;;;;;3.90;3.50;;;;;;;38.35;30.26;99532.84;108041;1254;63686;-70
2023/08/01 08:35:33;;;;;;;4.00;3.60;;;;;;;38.25;29.92;99533.02;108017;1254;60918;-70
2023/08/01 08:38:03;;;;;;;5.10;3.60;;;;;;;38.12;30.08;99528.60;108002;1259;60333;-72
2023/08/01 08:40:35;;;;;;;3.90;3.50;;;;;;;38.06;30.27;99534.49;108001;1254;63731;-71
2023/08/01 08:43:05;;;;;;;4.50;3.90;;;;;;;38.16;29.48;99530.69;107847;1254;61534;-69
2023/08/01 08:45:34;;;;;;;4.60;3.40;;;;;;;38.15;28.97;99528.27;107938;1254;63857;-72
2023/08/01 08:48:07;;;;;;;5.00;3.30;;;;;;;38.24;28.56;99521.73;108005;1254;59439;-72
2023/08/01 08:50:34;;;;;;;5.40;3.40;;;;;;;38.66;29.09;99523.01;107979;1254;60236;-71
2023/08/01 08:53:02;;;;;;;3.60;3.30;;;;;;;38.84;28.65;99516.90;108071;1255;64975;-72
2023/08/01 08:55:31;;;;;;;4.00;3.40;;;;;;;38.61;28.43;99517.80;108024;1254;61356;-72
2023/08/01 08:57:59;;;;;;;6.60;4.10;;;;;;;38.48;28.68;99522.52;108048;1254;63787;-71
2023/08/01 09:00:29;;;;;;;3.70;3.30;;;;;;;38.57;28.31;99516.75;108021;1255;60247;-72
2023/08/01 09:02:56;;;;;;;5.90;3.40;;;;;;;38.95;28.07;99510.65;107821;1254;60296;-72
2023/08/01 09:05:28;;;;;;;4.50;3.50;;;;;;;39.40;27.39;99510.05;108009;1254;64309;-73
2023/08/01 09:07:56;;;;;;;4.90;3.10;;;;;;;39.54;27.15;99511.34;107918;1254;60207;-72
2023/08/01 09:10:24;;;;;;;3.80;3.40;;;;;;;39.37;27.42;99511.21;107970;1254;63787;-72
2023/08/01 09:12:51;;;;;;;3.80;3.40;;;;;;;39.09;27.40;99511.59;107934;1254;60415;-72
2023/08/01 09:15:18;;;;;;;5.30;3.70;;;;;;;38.86;27.57;99509.02;108026;1254;60340;-73
2023/08/01 09:18:00;;;;;;;7.40;3.50;;;;;;;38.80;27.16;99501.02;107928;1254;63876;-72
2023/08/01 09:20:27;;;;;;;5.30;3.40;;;;;;;39.00;27.49;99494.21;107924;1254;61415;-73
2023/08/01 09:22:55;;;;;;;6.80;3.80;;;;;;;38.90;27.49;99491.50;107985;1254;64294;-72
2023/08/01 09:25:32;;;;;;;3.80;3.40;;;;;;;38.70;27.92;99491.21;108102;1254;60521;-72
2023/08/01 09:27:59;;;;;;;4.10;3.50;;;;;;;38.80;27.28;99485.78;108086;1253;60334;-71
2023/08/01 09:30:28;;;;;;;4.00;3.30;;;;;;;38.92;26.82;99479.91;108090;1254;65333;-72
2023/08/01 09:32:55;;;;;;;3.70;3.30;;;;;;;39.09;26.94;99480.65;108167;1254;61496;-72
2023/08/01 09:35:23;;;;;;;6.70;3.80;;;;;;;39.30;26.93;99482.78;108080;1254;64747;-72
2023/08/01 09:37:51;;;;;;;6.70;3.50;;;;;;;39.29;26.33;99481.89;108076;1254;60337;-73
2023/08/01 09:40:19;;;;;;;3.90;2.90;;;;;;;39.31;26.27;99479.38;107884;1253;60426;-71
2023/08/01 09:45:16;;;;;;;3.70;3.40;;;;;;;37.60;27.81;99474.92;104828;1293;601088;-72
2023/08/01 09:47:44;;;;;;;4.20;3.60;;;;;;;38.87;26.45;99475.83;107372;1268;59285;-72
2023/08/01 09:50:23;;;;;;;3.30;3.00;;;;;;;39.08;25.85;99472.66;107336;1266;59196;-71
2023/08/01 09:52:53;;;;;;;7.00;3.40;;;;;;;39.36;25.55;99473.05;107372;1264;62019;-71
2023/08/01 09:55:42;;;;;;;3.70;3.00;;;;;;;39.58;25.12;99478.27;107932;1254;61485;-73
2023/08/01 09:58:09;;;;;;;3.70;3.10;;;;;;;39.66;24.90;99477.21;107650;1253;413976;-71
2023/08/01 10:00:36;;;;;;;5.40;3.40;;;;;;;39.80;25.17;99469.65;107979;1255;59266;-72
2023/08/01 10:03:04;;;;;;;3.30;2.90;;;;;;;40.13;24.66;99469.77;107993;1258;59117;-71
2023/08/01 10:05:32;;;;;;;5.60;3.40;;;;;;;40.55;23.50;99469.48;108071;1255;62056;-71
2023/08/01 10:08:00;;;;;;;4.00;3.20;;;;;;;40.81;24.12;99470.91;108117;1254;60234;-71
2023/08/01 10:10:29;;;;;;;4.80;3.00;;;;;;;40.85;24.05;99464.30;107979;1254;63786;-71
2023/08/01 10:12:57;;;;;;;3.40;3.10;;;;;;;40.84;23.91;99462.54;107919;1257;59522;-72
2023/08/01 10:15:25;;;;;;;4.10;3.30;;;;;;;40.94;23.60;99457.41;107971;1254;59231;-72
2023/08/01 10:17:53;;;;;;;6.10;3.20;;;;;;;41.06;23.56;99459.48;107950;1254;64234;-72
2023/08/01 10:20:21;;;;;;;4.50;3.20;;;;;;;40.98;24.27;99462.66;108046;1259;60382;-71
2023/08/01 10:22:49;;;;;;;3.50;2.90;;;;;;;41.13;24.05;99457.06;108028;1259;62446;-72
2023/08/01 10:25:18;;;;;;;7.10;3.10;;;;;;;41.19;23.69;99452.11;108001;1255;59242;-71
2023/08/01 10:28:05;;;;;;;3.40;2.90;;;;;;;41.23;23.35;99447.98;107960;1254;59829;-72
2023/08/01 10:30:33;;;;;;;4.80;3.20;;;;;;;41.33;23.33;99445.81;108031;1254;64227;-73
2023/08/01 10:33:01;;;;;;;4.00;3.40;;;;;;;41.55;22.68;99448.31;107959;1254;61469;-70
2023/08/01 10:35:35;;;;;;;5.10;3.20;;;;;;;41.34;22.51;99446.38;107902;1256;63778;-71
2023/08/01 10:38:07;;;;;;;3.90;3.30;;;;;;;41.04;22.85;99441.59;107985;1253;59578;-72
2023/08/01 10:40:42;;;;;;;3.60;3.10;;;;;;;41.34;22.70;99436.48;107957;1259;59522;-73
2023/08/01 10:43:23;;;;;;;3.40;3.10;;;;;;;41.16;22.76;99425.08;107937;1255;64128;-74
2023/08/01 10:46:01;;;;;;;;;;;;;;;41.14;22.73;99428.19;107992;1260;60116;-72
2023/08/01 10:48:29;;;;;;;4.10;3.20;;;;;;;40.93;22.20;99427.82;108059;1259;63779;-71
2023/08/01 10:50:56;;;;;;;4.10;3.10;;;;;;;40.90;22.99;99429.69;108069;1259;59625;-73
2023/08/01 10:53:24;;;;;;;3.50;3.20;;;;;;;40.91;22.56;99430.02;108086;1254;59223;-71
2023/08/01 10:55:51;;;;;;;4.30;3.00;;;;;;;40.78;21.88;99432.85;107947;1254;62932;-72
2023/08/01 10:58:19;;;;;;;4.00;3.10;;;;;;;40.47;21.78;99435.52;107801;1254;72534;-73
2023/08/01 11:00:46;;;;;;;4.00;2.80;;;;;;;40.74;21.20;99427.72;107911;1254;64159;-73
2023/08/01 11:03:15;;;;;;;3.00;2.80;;;;;;;41.24;20.96;99430.95;107747;1258;59553;-73
2023/08/01 11:05:43;;;;;;;3.40;2.60;;;;;;;41.49;20.62;99431.63;107979;1260;59851;-72
2023/08/01 11:08:10;;;;;;;5.40;2.60;;;;;;;41.65;20.81;99427.26;107957;1254;62813;-71
2023/08/01 11:10:37;;;;;;;3.80;2.70;;;;;;;41.72;20.75;99431.45;107974;1255;60141;-71
2023/08/01 11:13:05;;;;;;;2.90;2.40;;;;;;;41.36;20.68;99430.69;107913;1254;63843;-72
2023/08/01 11:15:32;;;;;;;3.10;2.30;;;;;;;41.41;21.24;99427.25;108051;1254;59624;-71
2023/08/01 11:18:00;;;;;;;3.00;2.80;;;;;;;40.94;21.34;99422.23;107975;1254;59500;-73
2023/08/01 11:20:28;;;;;;;3.20;2.90;;;;;;;40.61;22.10;99418.52;108021;1254;64667;-69
2023/08/01 11:22:58;;;;;;;2.60;2.40;;;;;;;40.60;22.31;99414.92;107933;1254;61481;-73